Terminal Aerodrome Forecast
Issued by NWS Melbourne, FL

Home | Current Version | Previous Version | Text Only | Print | Product List | Glossary On
Versions: 1 2 3 4 5 6 7 8 9 10 11 12 13 14 15 16 17 18 19 20 21 22 23 24 25 26 27 28 29
000
FTUS42 KMLB 302058 AAA
TAFMCO
TAF AMD
KMCO 302058Z 3021/0118 27012G18KT P6SM SCT060 BKN070 BKN250
     FM302200 28010KT P6SM SCT070 BKN250
     FM010200 20004KT P6SM FEW040 SCT250=

USA.gov is the U.S. government's official web portal to all federal, state and local government web resources and services.